Time;durP1;ratioP1;P1;durP2;ratioP2;P2;SDS_P1;SDS_P2;PMS_P1;PMS_P2;Temp;Humidity;BMP_temperature;BMP_pressure;BME280_temperature;BME280_humidity;BME280_pressure;Samples;Min_cycle;Max_cycle;Signal;HPM_P1;HPM_P2
2023/11/04 00:02:04;;;;;;;8.40;4.30;;;5.20;98.00;;;;;;5014104;28;20520;-65
2023/11/04 00:04:31;;;;;;;9.57;4.00;;;5.20;98.00;;;;;;5012673;28;20486;-66
2023/11/04 00:06:58;;;;;;;7.30;4.10;;;5.40;98.00;;;;;;5013947;28;20470;-65
2023/11/04 00:09:26;;;;;;;7.70;3.70;;;5.30;98.00;;;;;;5013810;28;20456;-65
2023/11/04 00:11:53;;;;;;;7.33;3.60;;;5.40;98.00;;;;;;5013800;28;20966;-65
2023/11/04 00:14:21;;;;;;;8.90;3.77;;;5.40;98.00;;;;;;5013830;28;20456;-65
2023/11/04 00:16:48;;;;;;;7.10;3.73;;;5.30;98.00;;;;;;5013552;28;20452;-65
2023/11/04 00:19:16;;;;;;;7.37;3.93;;;5.10;98.00;;;;;;5013385;28;21080;-65
2023/11/04 00:21:43;;;;;;;7.37;3.57;;;5.00;98.00;;;;;;5013424;28;20451;-66
2023/11/04 00:24:10;;;;;;;10.60;3.47;;;4.90;98.00;;;;;;5013287;28;20952;-66
2023/11/04 00:26:38;;;;;;;5.20;3.23;;;4.90;98.00;;;;;;5013449;28;20487;-65
2023/11/04 00:29:06;;;;;;;7.10;3.67;;;4.80;98.00;;;;;;5013231;28;20462;-65
2023/11/04 00:31:35;;;;;;;6.53;3.37;;;4.80;98.00;;;;;;5012075;28;20493;-67
2023/11/04 00:34:03;;;;;;;6.53;3.47;;;4.80;98.00;;;;;;5013451;28;20458;-65
2023/11/04 00:36:31;;;;;;;4.03;2.70;;;4.80;98.00;;;;;;5012930;28;20459;-66
2023/11/04 00:38:59;;;;;;;7.70;3.97;;;4.90;98.00;;;;;;5013068;28;20571;-64
2023/11/04 00:41:26;;;;;;;8.47;3.83;;;4.90;98.00;;;;;;5013191;28;20455;-64
2023/11/04 00:43:53;;;;;;;8.43;3.60;;;4.80;98.00;;;;;;5013024;28;20482;-65
2023/11/04 00:46:21;;;;;;;5.50;3.27;;;4.90;98.00;;;;;;5013299;28;20447;-65
2023/11/04 00:48:50;;;;;;;6.90;3.30;;;5.00;98.00;;;;;;5013129;28;20993;-64
2023/11/04 00:51:17;;;;;;;7.17;3.20;;;5.00;98.00;;;;;;5012962;28;20455;-66
2023/11/04 00:53:44;;;;;;;5.50;2.90;;;4.70;98.00;;;;;;5013112;28;20864;-64
2023/11/04 00:56:11;;;;;;;5.10;3.00;;;4.60;98.00;;;;;;5013218;28;20454;-65
2023/11/04 00:58:38;;;;;;;6.50;3.23;;;4.60;98.00;;;;;;5013021;28;20861;-65
2023/11/04 01:01:07;;;;;;;11.90;2.97;;;4.50;98.00;;;;;;5012915;28;20451;-65
2023/11/04 01:03:35;;;;;;;4.33;2.60;;;4.40;98.00;;;;;;5012758;28;20454;-65
2023/11/04 01:06:03;;;;;;;4.40;2.67;;;4.40;98.00;;;;;;5012910;28;20546;-65
2023/11/04 01:08:30;;;;;;;5.07;3.00;;;4.60;98.00;;;;;;5012796;28;20457;-64
2023/11/04 01:10:58;;;;;;;4.43;2.97;;;4.50;98.00;;;;;;5012161;28;20456;-64
2023/11/04 01:13:25;;;;;;;4.53;2.63;;;4.40;98.00;;;;;;5012517;28;20501;-66
2023/11/04 01:15:52;;;;;;;5.57;2.73;;;4.40;98.00;;;;;;5012487;28;20459;-65
2023/11/04 01:18:20;;;;;;;7.00;3.10;;;4.30;98.00;;;;;;5012398;28;20492;-65
2023/11/04 01:20:47;;;;;;;7.60;4.00;;;4.40;98.00;;;;;;5012134;28;20495;-64
2023/11/04 01:23:16;;;;;;;8.00;3.60;;;4.50;98.00;;;;;;5012432;28;20530;-65
2023/11/04 01:25:43;;;;;;;6.77;2.70;;;4.60;98.00;;;;;;5012363;28;20953;-65
2023/11/04 01:28:10;;;;;;;6.17;3.27;;;4.60;98.00;;;;;;5012500;28;20459;-65
2023/11/04 01:30:37;;;;;;;9.30;3.43;;;4.60;98.00;;;;;;5012287;28;20458;-65
2023/11/04 01:33:05;;;;;;;5.53;3.10;;;4.60;98.00;;;;;;5012232;28;20816;-65
2023/11/04 01:35:32;;;;;;;4.10;2.80;;;4.60;98.00;;;;;;5012014;28;20453;-65
2023/11/04 01:37:59;;;;;;;9.70;3.20;;;4.70;98.00;;;;;;5011414;28;20457;-65
2023/11/04 01:40:28;;;;;;;5.80;3.10;;;4.80;98.00;;;;;;5012036;28;20905;-64
2023/11/04 01:42:55;;;;;;;7.03;3.30;;;4.90;98.00;;;;;;5011833;28;20567;-66
2023/11/04 01:45:22;;;;;;;5.20;3.10;;;4.80;98.00;;;;;;5012000;28;20955;-66
2023/11/04 01:47:50;;;;;;;8.53;3.50;;;4.80;98.00;;;;;;5012171;28;20505;-64
2023/11/04 01:50:19;;;;;;;4.37;2.57;;;4.90;98.00;;;;;;5011736;28;20456;-64
2023/11/04 01:52:47;;;;;;;6.30;2.83;;;5.10;98.00;;;;;;5012070;28;20662;-64
2023/11/04 01:55:16;;;;;;;7.67;3.00;;;5.20;98.00;;;;;;5011795;28;20549;-66
2023/11/04 01:57:45;;;;;;;4.90;2.57;;;5.30;98.00;;;;;;5011749;28;20452;-65
2023/11/04 02:00:13;;;;;;;6.77;3.13;;;5.40;98.00;;;;;;5011426;28;20490;-65
2023/11/04 02:02:43;;;;;;;6.57;2.90;;;5.50;98.00;;;;;;5011679;28;21037;-65
2023/11/04 02:05:11;;;;;;;6.00;2.70;;;5.50;98.00;;;;;;5011804;28;20458;-65
2023/11/04 02:07:38;;;;;;;3.80;2.50;;;5.40;98.00;;;;;;5010490;28;20529;-65
2023/11/04 02:10:06;;;;;;;5.60;3.20;;;5.30;98.00;;;;;;5011575;28;20458;-66
2023/11/04 02:12:33;;;;;;;6.17;3.27;;;5.30;98.00;;;;;;5011877;28;20559;-65
2023/11/04 02:15:02;;;;;;;8.50;3.80;;;5.40;98.00;;;;;;5011516;28;20981;-65
2023/11/04 02:17:29;;;;;;;7.37;3.53;;;5.40;98.00;;;;;;5011411;28;20458;-65
2023/11/04 02:20:01;;;;;;;5.10;2.80;;;5.30;98.00;;;;;;5011204;28;20498;-65
2023/11/04 02:22:30;;;;;;;5.93;3.30;;;5.20;98.00;;;;;;5011563;28;20456;-64
2023/11/04 02:24:58;;;;;;;4.23;2.93;;;5.10;98.00;;;;;;5011354;28;20474;-66
2023/11/04 02:27:26;;;;;;;6.33;3.20;;;5.10;98.00;;;;;;5011428;28;20832;-64
2023/11/04 02:29:53;;;;;;;8.00;3.70;;;5.10;98.00;;;;;;5010063;28;20855;-66
2023/11/04 02:32:20;;;;;;;8.90;3.37;;;5.10;98.00;;;;;;5011364;28;20452;-65
2023/11/04 02:34:47;;;;;;;6.73;3.10;;;5.10;98.00;;;;;;5011477;28;20824;-65
2023/11/04 02:37:14;;;;;;;5.90;3.30;;;5.00;98.00;;;;;;5011638;28;20448;-65
2023/11/04 02:39:42;;;;;;;7.00;3.00;;;4.90;98.00;;;;;;5011525;28;20479;-64
2023/11/04 02:42:10;;;;;;;6.50;3.50;;;4.70;98.00;;;;;;5010085;28;20490;-65
2023/11/04 02:44:37;;;;;;;10.80;3.40;;;4.60;98.00;;;;;;5011088;28;20553;-64
2023/11/04 02:47:04;;;;;;;7.40;3.37;;;4.50;98.00;;;;;;5011276;28;20508;-65
2023/11/04 02:49:32;;;;;;;5.40;3.30;;;4.30;98.00;;;;;;5013367;28;20457;-64
2023/11/04 02:51:59;;;;;;;4.50;2.60;;;4.40;98.00;;;;;;5014039;28;20466;-65
2023/11/04 02:54:27;;;;;;;6.90;3.00;;;4.40;98.00;;;;;;5014990;28;20449;-66
2023/11/04 02:56:56;;;;;;;4.17;2.60;;;4.50;98.00;;;;;;5015352;28;20902;-64
2023/11/04 02:59:24;;;;;;;7.77;3.30;;;4.60;98.00;;;;;;5014984;28;20489;-64
2023/11/04 03:01:51;;;;;;;6.33;2.90;;;4.50;98.00;;;;;;5014988;28;20467;-64
2023/11/04 03:04:18;;;;;;;6.30;3.27;;;4.50;98.00;;;;;;5015029;28;20450;-65
2023/11/04 03:06:45;;;;;;;4.37;3.13;;;4.40;98.00;;;;;;5014993;28;20967;-64
2023/11/04 03:09:12;;;;;;;6.60;3.10;;;4.20;98.00;;;;;;5014923;28;20963;-65
2023/11/04 03:11:40;;;;;;;4.87;3.10;;;4.20;98.00;;;;;;5014537;28;20990;-64
2023/11/04 03:14:08;;;;;;;6.00;3.20;;;4.10;98.00;;;;;;5014805;28;20444;-64
2023/11/04 03:16:37;;;;;;;4.50;2.63;;;4.20;98.00;;;;;;5014604;28;20458;-66
2023/11/04 03:19:04;;;;;;;5.33;2.70;;;4.40;98.00;;;;;;5014491;28;20453;-66
2023/11/04 03:21:31;;;;;;;5.00;3.00;;;4.50;98.00;;;;;;5014652;28;20467;-65
2023/11/04 03:23:58;;;;;;;4.93;2.70;;;4.40;98.00;;;;;;5014719;28;20812;-65
2023/11/04 03:26:25;;;;;;;7.77;2.80;;;4.20;98.00;;;;;;5014586;28;20458;-64
2023/11/04 03:28:53;;;;;;;6.67;3.00;;;4.10;98.00;;;;;;5014470;28;20940;-64
2023/11/04 03:31:21;;;;;;;5.13;2.70;;;4.20;98.00;;;;;;5014501;28;21047;-65
2023/11/04 03:33:48;;;;;;;6.37;2.97;;;4.20;98.00;;;;;;5014346;28;20524;-64
2023/11/04 03:36:15;;;;;;;5.70;2.80;;;4.30;98.00;;;;;;5014383;28;20467;-65
2023/11/04 03:38:42;;;;;;;3.93;2.40;;;4.30;98.00;;;;;;5014328;28;20452;-65
2023/11/04 03:41:09;;;;;;;9.90;3.40;;;4.20;98.00;;;;;;5014366;28;20483;-65
2023/11/04 03:43:36;;;;;;;6.07;3.00;;;4.20;98.00;;;;;;5014011;28;20465;-65
2023/11/04 03:46:04;;;;;;;9.17;3.10;;;4.20;98.00;;;;;;5012913;28;20511;-65
2023/11/04 03:48:33;;;;;;;8.40;3.00;;;4.20;98.00;;;;;;5014222;28;20461;-64
2023/11/04 03:51:00;;;;;;;5.63;2.83;;;4.00;98.00;;;;;;5014064;28;20465;-64
2023/11/04 03:53:28;;;;;;;5.03;2.77;;;4.00;98.00;;;;;;5014136;28;20459;-65
2023/11/04 03:55:55;;;;;;;5.50;3.00;;;4.00;98.00;;;;;;5014103;28;20972;-65
2023/11/04 03:58:22;;;;;;;6.60;3.40;;;4.20;98.00;;;;;;5014198;28;20466;-65
2023/11/04 04:00:49;;;;;;;5.33;2.90;;;4.20;98.00;;;;;;5013404;28;20494;-65
2023/11/04 04:03:16;;;;;;;4.27;2.60;;;4.10;98.00;;;;;;5014019;28;20459;-64
2023/11/04 04:05:44;;;;;;;5.00;2.90;;;4.20;98.00;;;;;;5013994;28;20854;-65
2023/11/04 04:08:12;;;;;;;5.37;3.10;;;4.20;98.00;;;;;;5013781;28;20986;-64
2023/11/04 04:10:39;;;;;;;9.10;2.70;;;4.20;98.00;;;;;;5013990;28;20449;-64
2023/11/04 04:13:06;;;;;;;7.40;3.00;;;4.10;98.00;;;;;;5014032;28;21233;-65
2023/11/04 04:15:33;;;;;;;7.57;3.10;;;3.90;98.00;;;;;;5013712;28;20448;-64
2023/11/04 04:18:00;;;;;;;5.80;2.83;;;3.90;98.00;;;;;;5014179;28;20970;-65
2023/11/04 04:20:29;;;;;;;4.80;2.43;;;3.80;98.00;;;;;;5013688;28;20485;-64
2023/11/04 04:22:57;;;;;;;3.50;2.47;;;3.90;98.00;;;;;;5013547;28;20452;-64
2023/11/04 04:25:26;;;;;;;5.83;2.93;;;3.80;98.00;;;;;;5013483;28;20963;-64
2023/11/04 04:27:53;;;;;;;5.60;3.00;;;3.80;98.00;;;;;;5013473;28;20847;-66
2023/11/04 04:30:20;;;;;;;6.13;3.07;;;3.80;98.00;;;;;;5012154;28;20449;-65
2023/11/04 04:32:48;;;;;;;4.03;2.40;;;3.70;98.00;;;;;;5013247;28;20551;-65
2023/11/04 04:35:18;;;;;;;3.67;2.40;;;3.60;98.00;;;;;;5013316;28;20531;-65
2023/11/04 04:37:45;;;;;;;9.20;2.70;;;3.70;98.00;;;;;;5013137;28;20527;-65
2023/11/04 04:40:17;;;;;;;3.73;2.60;;;3.70;98.00;;;;;;5013981;28;20488;-65
2023/11/04 04:42:44;;;;;;;3.73;2.50;;;3.80;98.00;;;;;;5012821;28;20614;-65
2023/11/04 04:45:11;;;;;;;5.23;2.60;;;3.70;98.00;;;;;;5013813;28;20464;-65
2023/11/04 04:47:39;;;;;;;4.43;2.43;;;3.70;98.00;;;;;;5014017;28;20855;-64
2023/11/04 04:50:07;;;;;;;3.90;2.30;;;3.90;98.00;;;;;;5013174;28;20821;-65
2023/11/04 04:52:34;;;;;;;3.77;2.30;;;4.00;98.00;;;;;;5012955;28;20456;-65
2023/11/04 04:55:01;;;;;;;4.40;2.60;;;4.00;98.00;;;;;;5013159;28;20484;-65
2023/11/04 04:57:30;;;;;;;4.00;2.40;;;3.90;98.00;;;;;;5013175;28;20463;-65
2023/11/04 04:59:57;;;;;;;4.20;2.10;;;4.00;98.00;;;;;;5011349;28;20500;-66
2023/11/04 05:02:25;;;;;;;9.43;3.00;;;4.20;98.00;;;;;;4997229;28;20453;-65
2023/11/04 05:04:52;;;;;;;4.83;2.57;;;4.20;98.00;;;;;;4993371;28;21005;-65
2023/11/04 05:07:20;;;;;;;5.17;2.80;;;4.30;98.00;;;;;;4993145;28;20453;-64
2023/11/04 05:09:47;;;;;;;5.03;2.73;;;4.30;98.00;;;;;;4992850;28;20465;-65
2023/11/04 05:12:14;;;;;;;3.70;2.30;;;4.30;98.00;;;;;;4992125;28;20450;-65
2023/11/04 05:14:42;;;;;;;4.93;2.13;;;4.20;98.00;;;;;;4992969;28;20459;-66
2023/11/04 05:17:09;;;;;;;3.73;2.63;;;4.20;98.00;;;;;;4992947;28;20528;-64
2023/11/04 05:19:36;;;;;;;5.90;2.77;;;4.00;98.00;;;;;;4992720;28;20456;-64
2023/11/04 05:22:03;;;;;;;4.50;2.83;;;3.90;98.00;;;;;;4993098;28;20461;-65
2023/11/04 05:24:30;;;;;;;4.93;2.80;;;4.00;98.00;;;;;;4992781;28;20511;-65
2023/11/04 05:26:58;;;;;;;6.33;2.60;;;4.00;98.00;;;;;;4993013;28;20520;-65
2023/11/04 05:29:25;;;;;;;3.10;2.43;;;3.90;98.00;;;;;;4992686;28;20458;-65
2023/11/04 05:31:54;;;;;;;3.33;2.13;;;4.00;98.00;;;;;;4992760;28;20452;-65
2023/11/04 05:34:21;;;;;;;5.63;2.60;;;3.90;98.00;;;;;;4992831;28;20454;-65
2023/11/04 05:36:48;;;;;;;5.73;2.60;;;3.90;98.00;;;;;;4991345;28;20958;-64
2023/11/04 05:39:15;;;;;;;3.40;2.23;;;3.90;98.00;;;;;;4992462;28;20468;-66
2023/11/04 05:41:43;;;;;;;4.27;2.67;;;3.80;98.00;;;;;;4992453;28;20535;-65
2023/11/04 05:44:10;;;;;;;4.30;2.47;;;3.70;98.00;;;;;;4992452;28;20533;-65
2023/11/04 05:46:37;;;;;;;3.93;2.27;;;3.70;98.00;;;;;;4992254;28;20477;-66
2023/11/04 05:49:06;;;;;;;4.37;2.13;;;3.70;98.00;;;;;;4992416;28;20462;-64
2023/11/04 05:51:33;;;;;;;5.10;2.70;;;3.70;98.00;;;;;;4992433;28;20463;-65
2023/11/04 05:54:00;;;;;;;4.70;2.87;;;3.80;98.00;;;;;;4992424;28;20447;-64
2023/11/04 05:56:27;;;;;;;3.93;2.30;;;4.00;98.00;;;;;;4992457;28;20546;-64
2023/11/04 05:58:54;;;;;;;4.23;2.37;;;4.20;98.00;;;;;;4992375;28;20549;-64
2023/11/04 06:01:24;;;;;;;4.10;2.40;;;4.20;98.00;;;;;;4992199;28;20495;-65
2023/11/04 06:03:52;;;;;;;4.63;2.50;;;4.10;98.00;;;;;;4992540;28;20836;-65
2023/11/04 06:06:21;;;;;;;3.87;2.40;;;4.20;98.00;;;;;;4992365;28;20537;-65
2023/11/04 06:08:48;;;;;;;6.43;2.63;;;4.30;98.00;;;;;;4992055;28;20454;-65
2023/11/04 06:11:15;;;;;;;4.30;2.43;;;4.20;98.00;;;;;;4992066;28;20462;-66
2023/11/04 06:13:43;;;;;;;4.97;2.83;;;4.20;98.00;;;;;;4991940;28;20512;-65
2023/11/04 06:16:11;;;;;;;4.30;2.63;;;4.20;98.00;;;;;;4992133;28;20512;-64
2023/11/04 06:18:38;;;;;;;5.43;2.50;;;4.10;98.00;;;;;;4991932;28;20461;-65
2023/11/04 06:21:05;;;;;;;5.30;2.70;;;4.20;98.00;;;;;;4991572;28;20508;-66
2023/11/04 06:23:34;;;;;;;4.27;2.53;;;4.20;98.00;;;;;;4991715;28;20469;-65
2023/11/04 06:26:01;;;;;;;5.70;2.40;;;4.20;98.00;;;;;;4991837;28;20451;-65
2023/11/04 06:28:28;;;;;;;3.27;2.30;;;4.20;98.00;;;;;;4991765;28;20505;-65
2023/11/04 06:30:55;;;;;;;4.10;2.50;;;4.20;98.00;;;;;;4991900;28;20829;-66
2023/11/04 06:33:22;;;;;;;4.63;2.53;;;4.30;98.00;;;;;;4991994;28;20480;-65
2023/11/04 06:35:49;;;;;;;6.00;2.80;;;4.30;98.00;;;;;;4991656;28;20759;-65
2023/11/04 06:38:16;;;;;;;12.23;5.00;;;4.20;98.00;;;;;;4991841;28;20848;-64
2023/11/04 06:40:45;;;;;;;8.03;3.60;;;4.20;98.00;;;;;;4991432;28;20555;-65
2023/11/04 06:43:12;;;;;;;6.40;3.43;;;4.20;98.00;;;;;;4991469;28;20467;-64
2023/11/04 06:45:39;;;;;;;9.70;3.47;;;4.30;98.00;;;;;;4991686;28;20448;-64
2023/11/04 06:48:06;;;;;;;11.30;4.20;;;4.30;98.00;;;;;;4991794;28;20458;-64
2023/11/04 06:50:36;;;;;;;2.93;2.27;;;4.50;98.00;;;;;;4991379;28;20446;-65
2023/11/04 06:53:03;;;;;;;4.90;2.53;;;4.70;98.00;;;;;;4991616;28;20509;-64
2023/11/04 06:55:32;;;;;;;5.07;2.97;;;4.70;98.00;;;;;;4991718;28;20945;-65
2023/11/04 06:58:01;;;;;;;4.60;2.67;;;4.70;98.00;;;;;;4991421;28;20446;-62
2023/11/04 07:00:31;;;;;;;3.90;2.27;;;4.60;98.00;;;;;;4991476;28;20485;-60
2023/11/04 07:02:58;;;;;;;4.00;2.60;;;4.60;98.00;;;;;;4991512;28;20465;-61
2023/11/04 07:05:25;;;;;;;4.20;2.80;;;4.50;98.00;;;;;;4991505;28;20460;-61
2023/11/04 07:07:52;;;;;;;4.00;2.40;;;4.30;98.00;;;;;;4991609;28;20981;-61
2023/11/04 07:10:19;;;;;;;5.93;2.80;;;4.40;98.00;;;;;;4991457;28;20458;-61
2023/11/04 07:12:46;;;;;;;3.63;2.30;;;4.30;98.00;;;;;;4991313;28;20461;-61
2023/11/04 07:15:15;;;;;;;7.63;3.40;;;4.30;98.00;;;;;;4991384;28;20459;-61
2023/11/04 07:17:42;;;;;;;6.00;3.10;;;4.30;98.00;;;;;;4991333;28;20460;-61
2023/11/04 07:20:10;;;;;;;7.03;3.40;;;4.30;98.00;;;;;;4991015;28;20523;-61
2023/11/04 07:22:37;;;;;;;7.77;3.03;;;4.40;98.00;;;;;;4991312;28;20534;-61
2023/11/04 07:25:04;;;;;;;6.33;3.37;;;4.30;98.00;;;;;;4991073;28;20448;-61
2023/11/04 07:27:31;;;;;;;6.13;2.87;;;4.10;98.00;;;;;;4991612;28;20460;-61
2023/11/04 07:29:59;;;;;;;7.33;3.43;;;4.20;98.00;;;;;;4991160;28;20892;-61
2023/11/04 07:32:28;;;;;;;5.80;3.27;;;4.40;98.00;;;;;;4991474;28;20521;-61
2023/11/04 07:34:55;;;;;;;12.37;4.83;;;4.40;98.00;;;;;;4992397;28;20478;-61
2023/11/04 07:37:22;;;;;;;10.03;3.90;;;4.40;98.00;;;;;;4995126;28;20499;-61
2023/11/04 07:39:49;;;;;;;7.33;3.60;;;4.40;98.00;;;;;;4994517;28;20538;-61
2023/11/04 07:42:16;;;;;;;3.67;2.27;;;4.40;98.00;;;;;;4995381;28;20480;-60
2023/11/04 07:44:43;;;;;;;5.50;2.63;;;4.50;98.00;;;;;;4995406;28;20868;-62
2023/11/04 07:47:10;;;;;;;4.20;2.40;;;4.60;98.00;;;;;;4995609;28;20449;-61
2023/11/04 07:49:39;;;;;;;4.10;2.30;;;4.70;98.00;;;;;;4994785;28;20454;-61
2023/11/04 07:52:08;;;;;;;4.37;2.73;;;4.80;98.00;;;;;;4995190;28;20457;-60
2023/11/04 07:54:39;;;;;;;4.80;2.10;;;4.90;98.00;;;;;;4995215;28;20450;-61
2023/11/04 07:57:06;;;;;;;6.00;3.27;;;5.00;98.00;;;;;;4994371;28;20470;-60
2023/11/04 07:59:33;;;;;;;5.73;2.60;;;5.10;98.00;;;;;;4994891;28;20951;-61
2023/11/04 08:02:00;;;;;;;3.70;2.47;;;5.20;98.00;;;;;;4994872;28;20531;-61
2023/11/04 08:04:27;;;;;;;3.30;2.20;;;5.40;98.00;;;;;;4995039;28;20482;-61
2023/11/04 08:06:56;;;;;;;5.30;2.60;;;5.50;98.00;;;;;;4994922;28;20462;-61
2023/11/04 08:09:23;;;;;;;3.53;2.27;;;5.50;98.00;;;;;;4994899;28;21098;-60
2023/11/04 08:11:51;;;;;;;7.13;2.73;;;5.50;98.00;;;;;;4994808;28;20455;-60
2023/11/04 08:14:18;;;;;;;6.20;3.03;;;5.50;98.00;;;;;;4961699;28;20559;-61
2023/11/04 08:16:45;;;;;;;5.80;3.10;;;5.70;98.00;;;;;;4994860;28;20444;-60
2023/11/04 08:19:12;;;;;;;5.80;3.17;;;5.70;98.00;;;;;;4994704;28;20452;-61
2023/11/04 08:21:39;;;;;;;7.23;3.60;;;5.80;98.00;;;;;;4994582;28;20494;-60
2023/11/04 08:24:08;;;;;;;9.67;3.53;;;5.90;98.00;;;;;;4994627;28;20839;-61
2023/11/04 08:26:39;;;;;;;5.83;3.30;;;6.10;98.00;;;;;;4993547;28;20458;-61
2023/11/04 08:29:07;;;;;;;6.40;3.60;;;6.10;98.00;;;;;;4994531;28;20518;-61
2023/11/04 08:31:34;;;;;;;6.73;3.43;;;6.20;98.00;;;;;;4993468;28;20794;-61
2023/11/04 08:34:02;;;;;;;7.40;4.23;;;6.30;98.00;;;;;;4994365;28;20458;-61
2023/11/04 08:36:29;;;;;;;5.60;3.20;;;6.50;98.00;;;;;;4993364;28;21148;-61
2023/11/04 08:38:56;;;;;;;8.07;3.60;;;6.50;98.00;;;;;;4994517;28;21119;-61
2023/11/04 08:41:25;;;;;;;8.40;3.40;;;6.60;98.00;;;;;;4994215;28;20527;-61
2023/11/04 08:43:52;;;;;;;5.37;3.27;;;6.60;98.00;;;;;;4994097;28;20523;-60
2023/11/04 08:46:19;;;;;;;6.40;3.87;;;6.80;98.00;;;;;;4994332;28;21072;-60
2023/11/04 08:48:46;;;;;;;8.80;4.20;;;6.90;98.00;;;;;;4993065;28;20968;-61
2023/11/04 08:51:14;;;;;;;6.50;3.47;;;7.00;98.00;;;;;;4993700;28;20580;-61
2023/11/04 08:53:41;;;;;;;6.43;3.57;;;7.20;98.00;;;;;;4994216;28;20456;-61
2023/11/04 08:56:09;;;;;;;6.70;3.37;;;7.40;98.00;;;;;;4994038;28;20467;-61
2023/11/04 08:58:38;;;;;;;7.90;3.47;;;7.50;98.00;;;;;;4994021;28;20452;-61
2023/11/04 09:01:06;;;;;;;6.70;3.40;;;7.70;98.00;;;;;;4993799;28;20564;-62
2023/11/04 09:03:33;;;;;;;3.67;1.97;;;7.80;98.00;;;;;;4993944;28;20452;-61
2023/11/04 09:06:00;;;;;;;3.97;1.93;;;8.10;98.00;;;;;;4992724;28;20929;-60
2023/11/04 09:08:28;;;;;;;2.53;1.87;;;8.30;98.00;;;;;;4992843;28;20449;-61
2023/11/04 09:10:55;;;;;;;3.20;1.73;;;8.40;98.00;;;;;;4993552;28;20488;-61
2023/11/04 09:13:24;;;;;;;1.80;1.57;;;8.60;98.00;;;;;;4993835;28;20512;-61
2023/11/04 09:15:54;;;;;;;1.93;1.57;;;8.70;98.00;;;;;;4993653;28;20911;-62
2023/11/04 09:18:21;;;;;;;2.30;1.53;;;8.80;98.00;;;;;;4993964;28;20481;-62
2023/11/04 09:20:48;;;;;;;2.23;1.50;;;9.00;98.00;;;;;;4993781;28;20451;-61
2023/11/04 09:23:15;;;;;;;1.60;1.40;;;9.10;98.00;;;;;;4993886;28;20868;-62
2023/11/04 09:25:42;;;;;;;2.47;1.63;;;9.20;98.00;;;;;;4992994;28;20459;-61
2023/11/04 09:28:09;;;;;;;1.73;1.50;;;9.30;98.00;;;;;;4992946;28;20452;-61
2023/11/04 09:30:36;;;;;;;2.63;1.60;;;9.40;98.00;;;;;;4992840;28;20869;-61
2023/11/04 09:33:05;;;;;;;7.17;1.70;;;9.50;98.00;;;;;;4992099;28;20448;-63
2023/11/04 09:35:32;;;;;;;2.40;1.70;;;9.50;98.00;;;;;;4992711;28;20984;-61
2023/11/04 09:37:59;;;;;;;2.73;1.90;;;9.50;98.00;;;;;;4992837;28;20468;-61
2023/11/04 09:40:26;;;;;;;2.77;1.70;;;9.50;98.00;;;;;;4992551;28;20459;-61
2023/11/04 09:42:55;;;;;;;1.93;1.60;;;9.50;98.00;;;;;;4992421;28;20502;-61
2023/11/04 09:45:24;;;;;;;1.87;1.60;;;9.60;98.00;;;;;;4992594;28;20436;-61
2023/11/04 09:47:53;;;;;;;2.50;1.80;;;9.80;98.00;;;;;;4992508;28;20506;-62
2023/11/04 09:50:21;;;;;;;3.30;1.90;;;10.00;98.00;;;;;;4992354;28;20511;-61
2023/11/04 09:52:53;;;;;;;2.10;1.80;;;10.10;98.00;;;;;;4992519;28;20460;-61
2023/11/04 09:55:20;;;;;;;3.03;1.87;;;10.20;98.00;;;;;;4992300;28;20459;-61
2023/11/04 09:57:48;;;;;;;2.07;1.60;;;10.30;98.00;;;;;;4991907;28;20465;-61
2023/11/04 10:00:20;;;;;;;6.13;2.17;;;10.40;98.00;;;;;;4990803;28;20540;-61
2023/11/04 10:02:47;;;;;;;2.17;1.60;;;10.60;98.00;;;;;;4992220;28;20491;-61
2023/11/04 10:05:15;;;;;;;5.03;2.50;;;10.70;98.00;;;;;;4992340;28;20483;-62
2023/11/04 10:07:45;;;;;;;2.27;1.53;;;10.90;98.00;;;;;;4992222;28;20456;-62
2023/11/04 10:10:12;;;;;;;1.67;1.60;;;11.10;98.00;;;;;;4992238;28;20450;-61
2023/11/04 10:12:39;;;;;;;1.80;1.50;;;11.30;98.00;;;;;;4992187;28;20958;-61
2023/11/04 10:15:07;;;;;;;2.13;1.60;;;11.40;98.00;;;;;;4992189;28;20548;-61
2023/11/04 10:17:35;;;;;;;2.40;1.50;;;11.60;98.00;;;;;;4992252;28;20456;-61
2023/11/04 10:20:07;;;;;;;1.50;1.40;;;11.70;98.00;;;;;;4991907;28;20537;-62
2023/11/04 10:22:35;;;;;;;3.00;1.60;;;11.70;98.00;;;;;;4992053;28;20498;-61
2023/11/04 10:25:04;;;;;;;1.60;1.40;;;11.80;98.00;;;;;;4992126;28;20453;-61
2023/11/04 10:27:31;;;;;;;4.80;1.50;;;11.90;98.00;;;;;;4992157;28;20709;-62
2023/11/04 10:29:58;;;;;;;2.13;1.57;;;11.90;98.00;;;;;;4991856;28;20457;-61
2023/11/04 10:32:33;;;;;;;1.73;1.57;;;12.00;98.00;;;;;;4992021;28;20456;-61
2023/11/04 10:35:02;;;;;;;5.33;2.37;;;12.10;98.00;;;;;;4991927;28;20465;-61
2023/11/04 10:37:32;;;;;;;1.70;1.50;;;12.20;98.00;;;;;;4991917;28;20459;-61
2023/11/04 10:40:06;;;;;;;1.67;1.37;;;12.40;98.00;;;;;;4992108;28;20464;-61
2023/11/04 10:42:38;;;;;;;1.40;1.40;;;12.40;98.00;;;;;;4991655;28;20570;-62
2023/11/04 10:45:12;;;;;;;1.87;1.50;;;12.50;98.00;;;;;;4991909;28;21096;-62
2023/11/04 10:47:50;;;;;;;1.50;1.30;;;12.50;98.00;;;;;;4991841;28;20458;-62
2023/11/04 10:50:26;;;;;;;1.40;1.30;;;12.40;98.00;;;;;;4990724;28;20500;-62
2023/11/04 10:53:12;;;;;;;2.27;1.40;;;12.20;98.00;;;;;;4991663;28;20541;-62
2023/11/04 10:55:49;;;;;;;1.87;1.40;;;12.10;98.00;;;;;;4991660;28;20488;-62
2023/11/04 10:58:22;;;;;;;1.33;1.10;;;12.10;98.00;;;;;;4991749;28;21008;-61
2023/11/04 11:00:52;;;;;;;1.60;1.20;;;12.00;98.00;;;;;;4991634;28;20468;-62
2023/11/04 11:03:20;;;;;;;2.03;1.40;;;11.90;98.00;;;;;;4991601;28;20890;-63
2023/11/04 11:05:48;;;;;;;1.30;1.30;;;11.80;98.00;;;;;;4991776;28;20465;-61
2023/11/04 11:08:16;;;;;;;1.97;1.37;;;11.80;98.00;;;;;;4991898;28;20466;-62
2023/11/04 11:10:48;;;;;;;1.50;1.20;;;11.80;98.00;;;;;;4994323;28;20451;-61
2023/11/04 11:13:20;;;;;;;1.20;1.20;;;11.70;98.00;;;;;;4994500;28;20810;-61
2023/11/04 11:15:48;;;;;;;1.40;1.20;;;11.60;98.00;;;;;;4995463;28;20798;-61
2023/11/04 11:18:26;;;;;;;1.53;1.20;;;11.60;98.00;;;;;;4995573;28;20456;-62
2023/11/04 11:20:53;;;;;;;1.47;1.27;;;11.60;98.00;;;;;;4995335;28;20455;-61
2023/11/04 11:23:26;;;;;;;1.80;1.40;;;11.60;98.00;;;;;;4995216;28;20535;-62
2023/11/04 11:26:05;;;;;;;1.53;1.30;;;11.50;98.00;;;;;;4995146;28;20455;-61
2023/11/04 11:28:37;;;;;;;1.97;1.33;;;11.60;98.00;;;;;;4995085;28;20459;-61
2023/11/04 11:31:04;;;;;;;2.23;1.40;;;11.70;98.00;;;;;;4995024;28;20450;-61
2023/11/04 11:33:32;;;;;;;2.20;1.20;;;11.90;98.00;;;;;;4995132;28;20521;-61
2023/11/04 11:36:00;;;;;;;2.73;1.30;;;12.00;98.00;;;;;;4994892;28;20868;-61
2023/11/04 11:38:27;;;;;;;1.50;1.33;;;12.10;98.00;;;;;;4993838;28;21049;-61
2023/11/04 11:40:55;;;;;;;1.50;1.40;;;12.10;98.00;;;;;;4993623;28;20464;-61
2023/11/04 11:43:24;;;;;;;1.47;1.27;;;12.20;98.00;;;;;;4994708;28;20510;-61
2023/11/04 11:45:52;;;;;;;1.50;1.33;;;12.20;98.00;;;;;;4994578;28;20455;-61
2023/11/04 11:48:19;;;;;;;1.60;1.20;;;12.20;98.00;;;;;;4994777;28;20954;-61
2023/11/04 11:50:46;;;;;;;1.30;1.20;;;12.10;98.00;;;;;;4994705;28;20458;-61
2023/11/04 11:53:14;;;;;;;1.90;1.20;;;12.10;98.00;;;;;;4994623;28;20462;-61
2023/11/04 11:55:42;;;;;;;1.50;1.20;;;12.10;98.00;;;;;;4994536;28;20957;-61
2023/11/04 11:58:12;;;;;;;1.60;1.30;;;12.10;98.00;;;;;;4994418;28;20463;-61
2023/11/04 12:00:40;;;;;;;1.50;1.20;;;12.00;98.00;;;;;;4994473;28;20596;-61
2023/11/04 12:03:09;;;;;;;1.60;1.20;;;12.00;98.00;;;;;;4993212;28;20491;-62
2023/11/04 12:05:38;;;;;;;1.30;1.20;;;11.90;98.00;;;;;;4994331;28;20466;-61
2023/11/04 12:08:06;;;;;;;1.43;1.20;;;12.00;98.00;;;;;;4994445;28;20447;-62
2023/11/04 12:10:33;;;;;;;1.93;1.30;;;12.00;98.00;;;;;;4994331;28;20532;-62
2023/11/04 12:13:00;;;;;;;1.60;1.20;;;12.00;98.00;;;;;;4994127;28;20452;-61
2023/11/04 12:15:27;;;;;;;3.50;1.20;;;11.90;98.00;;;;;;4994284;28;20456;-61
2023/11/04 12:18:02;;;;;;;3.77;1.90;;;11.80;98.00;;;;;;4994221;28;20498;-61
2023/11/04 12:20:30;;;;;;;1.87;1.47;;;11.70;98.00;;;;;;4993664;28;20483;-62
2023/11/04 12:22:58;;;;;;;1.40;1.27;;;11.70;98.00;;;;;;4994158;28;20493;-61
2023/11/04 12:25:26;;;;;;;1.77;1.17;;;11.70;98.00;;;;;;4992780;28;20465;-61
2023/11/04 12:27:55;;;;;;;1.50;1.30;;;11.60;98.00;;;;;;4994063;28;20481;-61
2023/11/04 12:30:22;;;;;;;2.40;1.43;;;11.60;98.00;;;;;;4994119;28;20457;-61
2023/11/04 12:32:53;;;;;;;1.97;1.40;;;11.50;98.00;;;;;;4993964;28;21027;-61
2023/11/04 12:35:22;;;;;;;1.80;1.30;;;11.50;98.00;;;;;;4993699;28;20453;-61
2023/11/04 12:37:50;;;;;;;2.87;1.57;;;11.50;98.00;;;;;;4992684;28;20455;-62
2023/11/04 12:40:18;;;;;;;1.30;1.30;;;11.50;98.00;;;;;;4993855;28;20461;-62
2023/11/04 12:42:46;;;;;;;1.47;1.27;;;11.50;98.00;;;;;;4993699;28;20863;-61
2023/11/04 12:45:15;;;;;;;2.43;1.53;;;11.50;98.00;;;;;;4994127;28;20458;-61
2023/11/04 12:47:42;;;;;;;2.20;1.50;;;11.50;98.00;;;;;;4992943;28;20891;-61
2023/11/04 12:50:11;;;;;;;1.93;1.47;;;11.40;98.00;;;;;;4993905;28;20875;-62
2023/11/04 12:52:43;;;;;;;1.70;1.40;;;11.40;98.00;;;;;;4993422;28;20461;-61
2023/11/04 12:55:11;;;;;;;2.53;1.53;;;11.30;98.00;;;;;;4993756;28;20512;-61
2023/11/04 12:57:38;;;;;;;2.03;1.43;;;11.30;98.00;;;;;;4993637;28;20514;-61
2023/11/04 13:00:07;;;;;;;1.80;1.50;;;11.30;98.00;;;;;;4993450;28;20734;-61